createdAt,value
2023-05-24T00:01:56.684Z,75.21
2023-05-24T00:04:25.119Z,75.85
2023-05-24T00:06:54.727Z,75.89
2023-05-24T00:09:21.385Z,76.87
2023-05-24T00:11:47.853Z,77.03
2023-05-24T00:14:14.376Z,77.65
2023-05-24T00:16:41.596Z,77.96
2023-05-24T00:19:11.011Z,78.89
2023-05-24T00:21:37.555Z,80.21
2023-05-24T00:24:04.015Z,80.67
2023-05-24T00:26:30.540Z,81.19
2023-05-24T00:28:57.444Z,81.39
2023-05-24T00:31:23.917Z,80.91
2023-05-24T00:33:50.442Z,81.08
2023-05-24T00:36:18.457Z,81.53
2023-05-24T00:38:47.787Z,81.15
2023-05-24T00:41:16.294Z,81.57
2023-05-24T00:43:46.086Z,82.32
2023-05-24T00:46:22.478Z,82.74
2023-05-24T00:48:50.628Z,82.81
2023-05-24T00:51:18.081Z,83.28
2023-05-24T00:53:47.672Z,84.40
2023-05-24T00:56:15.830Z,84.69
2023-05-24T00:58:43.033Z,84.67
2023-05-24T01:01:10.764Z,84.97
2023-05-24T01:03:37.833Z,85.55
2023-05-24T01:06:07.218Z,86.15
2023-05-24T01:08:39.987Z,86.81
2023-05-24T01:11:18.410Z,87.34
2023-05-24T01:14:17.298Z,88.64
2023-05-24T01:17:00.566Z,88.59
2023-05-24T01:20:06.647Z,89.43
2023-05-24T01:22:54.677Z,89.71
2023-05-24T01:25:46.396Z,90.40
2023-05-24T01:28:13.534Z,90.38
2023-05-24T01:30:41.783Z,90.09
2023-05-24T01:33:09.000Z,90.34
2023-05-24T01:35:40.184Z,90.93
2023-05-24T01:38:07.168Z,91.43
2023-05-24T01:40:35.900Z,91.25
2023-05-24T01:43:13.312Z,91.55
2023-05-24T01:46:16.294Z,91.51
2023-05-24T01:49:15.775Z,91.41
2023-05-24T01:51:57.578Z,92.10
2023-05-24T01:54:26.366Z,92.19
2023-05-24T01:56:55.108Z,92.49
2023-05-24T01:59:24.083Z,93.23
2023-05-24T02:01:51.549Z,93.53
2023-05-24T02:04:18.186Z,93.88
2023-05-24T02:06:44.825Z,94.20
2023-05-24T02:09:11.300Z,94.11
2023-05-24T02:11:37.848Z,94.27
2023-05-24T02:14:04.357Z,94.37
2023-05-24T02:16:30.878Z,94.76
2023-05-24T02:18:57.989Z,95.14
2023-05-24T02:21:25.732Z,95.36
2023-05-24T02:23:52.421Z,95.39
2023-05-24T02:26:18.980Z,95.51
2023-05-24T02:28:45.484Z,95.83
2023-05-24T02:31:12.079Z,95.98
2023-05-24T02:33:38.661Z,96.33
2023-05-24T02:36:05.249Z,96.47
2023-05-24T02:38:32.093Z,96.75
2023-05-24T02:40:58.513Z,96.95
2023-05-24T02:43:25.112Z,97.21
2023-05-24T02:45:51.655Z,97.32
2023-05-24T02:48:18.111Z,97.79
2023-05-24T02:50:44.787Z,97.96
2023-05-24T02:53:11.794Z,98.08
2023-05-24T02:55:38.527Z,98.50
2023-05-24T02:58:05.101Z,98.65
2023-05-24T03:00:33.077Z,98.03
2023-05-24T03:03:02.945Z,98.24
2023-05-24T03:05:29.636Z,98.27
2023-05-24T03:07:56.712Z,98.25
2023-05-24T03:10:23.281Z,98.50
2023-05-24T03:12:50.359Z,98.96
2023-05-24T03:15:16.789Z,98.42
2023-05-24T03:17:43.440Z,98.32
2023-05-24T03:20:11.633Z,98.69
2023-05-24T03:22:38.541Z,98.72
2023-05-24T03:25:05.596Z,99.02
2023-05-24T03:27:32.048Z,99.49
2023-05-24T03:29:59.238Z,99.51
2023-05-24T03:32:29.422Z,99.07
2023-05-24T03:34:57.451Z,98.57
2023-05-24T03:37:24.445Z,97.92
2023-05-24T03:39:52.323Z,97.77
2023-05-24T03:42:48.663Z,97.96
2023-05-24T03:45:19.531Z,98.13
2023-05-24T03:47:50.781Z,97.60
2023-05-24T03:50:18.559Z,97.30
2023-05-24T03:52:44.981Z,96.96
2023-05-24T03:55:11.615Z,97.15
2023-05-24T03:57:38.534Z,97.32
2023-05-24T04:00:07.202Z,97.58
2023-05-24T04:02:40.776Z,98.21
2023-05-24T04:05:10.056Z,98.24
2023-05-24T04:07:38.186Z,99.02
2023-05-24T04:10:06.488Z,99.20
2023-05-24T04:12:33.505Z,99.65
2023-05-24T04:15:00.771Z,99.58
2023-05-24T04:17:30.294Z,100.00
2023-05-24T04:19:56.963Z,100.00
2023-05-24T04:22:25.637Z,100.00
2023-05-24T04:24:52.697Z,100.00
2023-05-24T04:27:19.257Z,100.00
2023-05-24T04:29:49.755Z,100.00
2023-05-24T04:32:17.749Z,100.00
2023-05-24T04:34:45.896Z,100.00
2023-05-24T04:37:13.882Z,99.81
2023-05-24T04:39:40.824Z,99.05
2023-05-24T04:42:07.781Z,98.62
2023-05-24T04:44:34.212Z,98.23
2023-05-24T04:47:02.739Z,97.60
2023-05-24T04:49:29.843Z,97.01
2023-05-24T04:51:57.034Z,96.68
2023-05-24T04:54:23.905Z,96.56
2023-05-24T04:56:50.481Z,96.29
2023-05-24T04:59:16.910Z,95.40
2023-05-24T05:01:43.662Z,95.12
2023-05-24T05:04:10.248Z,94.81
2023-05-24T05:06:39.611Z,93.44
2023-05-24T05:09:10.555Z,93.72
2023-05-24T05:11:37.047Z,93.60
2023-05-24T05:14:03.617Z,93.38
2023-05-24T05:16:30.734Z,92.41
2023-05-24T05:18:58.551Z,92.76
2023-05-24T05:21:25.063Z,92.60
2023-05-24T05:23:51.501Z,92.67
2023-05-24T05:26:17.940Z,92.63
2023-05-24T05:28:44.770Z,92.54
2023-05-24T05:31:11.185Z,91.77
2023-05-24T05:33:37.688Z,91.05
2023-05-24T05:36:04.239Z,91.12
2023-05-24T05:38:30.731Z,90.92
2023-05-24T05:40:57.158Z,90.69
2023-05-24T05:43:25.063Z,90.72
2023-05-24T05:45:51.513Z,90.52
2023-05-24T05:48:17.978Z,90.58
2023-05-24T05:50:44.499Z,90.28
2023-05-24T05:53:11.172Z,89.94
2023-05-24T05:55:37.607Z,89.16
2023-05-24T05:58:04.138Z,88.83
2023-05-24T06:00:30.648Z,88.60
2023-05-24T06:02:57.257Z,88.38
2023-05-24T06:05:23.782Z,88.45
2023-05-24T06:07:50.289Z,87.98
2023-05-24T06:10:16.887Z,87.92
2023-05-24T06:12:44.770Z,87.96
2023-05-24T06:15:12.084Z,87.87
2023-05-24T06:17:38.615Z,87.81
2023-05-24T06:20:15.591Z,87.85
2023-05-24T06:22:42.636Z,87.61
2023-05-24T06:25:09.700Z,87.47
2023-05-24T06:27:36.214Z,87.61
2023-05-24T06:30:02.760Z,87.50
2023-05-24T06:32:29.282Z,87.35
2023-05-24T06:34:55.805Z,87.08
2023-05-24T06:37:25.294Z,85.96
2023-05-24T06:39:51.781Z,85.50
2023-05-24T06:42:18.267Z,85.24
2023-05-24T06:44:46.005Z,84.99
2023-05-24T06:47:12.602Z,84.86
2023-05-24T06:49:39.162Z,84.84
2023-05-24T06:52:07.788Z,84.89
2023-05-24T06:54:35.099Z,84.86
2023-05-24T06:57:03.714Z,84.42
2023-05-24T06:59:30.346Z,84.32
2023-05-24T07:01:58.929Z,83.92
2023-05-24T07:04:26.819Z,83.82
2023-05-24T07:06:53.248Z,84.03
2023-05-24T07:09:19.903Z,84.28
2023-05-24T07:11:47.466Z,84.82
2023-05-24T07:14:13.940Z,84.36
2023-05-24T07:16:40.511Z,83.49
2023-05-24T07:19:07.350Z,83.05
2023-05-24T07:21:33.836Z,82.89
2023-05-24T07:24:00.298Z,82.61
2023-05-24T07:26:26.768Z,82.46
2023-05-24T07:28:53.310Z,82.14
2023-05-24T07:31:19.823Z,82.06
2023-05-24T07:33:46.267Z,82.12
2023-05-24T07:36:12.835Z,81.46
2023-05-24T07:38:39.295Z,81.14
2023-05-24T07:41:06.850Z,79.66
2023-05-24T07:43:33.514Z,79.22
2023-05-24T07:46:00.046Z,79.04
2023-05-24T07:48:26.692Z,78.79
2023-05-24T07:50:53.147Z,78.19
2023-05-24T07:53:19.953Z,77.84
2023-05-24T07:55:46.552Z,78.02
2023-05-24T07:58:12.977Z,78.50
2023-05-24T08:00:39.600Z,78.38
2023-05-24T08:03:06.404Z,77.35
2023-05-24T08:05:32.976Z,76.57
2023-05-24T08:07:59.462Z,74.84
2023-05-24T08:10:26.304Z,71.67
2023-05-24T08:12:55.155Z,71.31
2023-05-24T08:15:21.761Z,71.18
2023-05-24T08:17:48.805Z,71.30
2023-05-24T08:20:15.885Z,70.95
2023-05-24T08:22:43.129Z,71.78
2023-05-24T08:25:11.506Z,72.28
2023-05-24T08:27:38.210Z,72.60
2023-05-24T08:30:05.620Z,71.90
2023-05-24T08:32:32.755Z,69.43
2023-05-24T08:35:14.750Z,68.39
2023-05-24T08:37:46.121Z,69.17
2023-05-24T08:40:12.811Z,69.82
2023-05-24T08:42:40.647Z,70.36
2023-05-24T08:45:14.856Z,69.31
2023-05-24T08:47:42.594Z,68.86
2023-05-24T08:50:09.825Z,69.47
2023-05-24T08:52:36.841Z,64.96
2023-05-24T08:55:07.366Z,64.91
2023-05-24T08:57:35.746Z,65.35
2023-05-24T09:00:02.272Z,64.20
2023-05-24T09:02:30.222Z,62.88
2023-05-24T09:04:57.174Z,60.96
2023-05-24T09:07:24.169Z,61.54
2023-05-24T09:10:06.896Z,61.51
2023-05-24T09:12:38.051Z,63.03
2023-05-24T09:15:07.190Z,62.06
2023-05-24T09:17:38.086Z,60.94
2023-05-24T09:20:11.413Z,60.14
2023-05-24T09:22:40.893Z,58.73
2023-05-24T09:25:10.183Z,58.70
2023-05-24T09:27:37.416Z,56.80
2023-05-24T09:30:10.049Z,56.98
2023-05-24T09:32:36.540Z,57.77
2023-05-24T09:35:03.154Z,57.73
2023-05-24T09:37:32.522Z,58.01
2023-05-24T09:39:59.577Z,60.09
2023-05-24T09:42:28.247Z,59.41
2023-05-24T09:45:11.946Z,59.96
2023-05-24T09:47:41.953Z,58.63
2023-05-24T09:50:17.720Z,56.93
2023-05-24T09:52:45.036Z,56.86
2023-05-24T09:55:16.374Z,57.45
2023-05-24T09:57:52.050Z,57.21
2023-05-24T10:00:23.868Z,57.05
2023-05-24T10:03:13.898Z,56.16
2023-05-24T10:05:45.511Z,56.70
2023-05-24T10:08:14.220Z,55.80
2023-05-24T10:10:42.385Z,54.11
2023-05-24T10:13:10.043Z,53.30
2023-05-24T10:15:36.585Z,54.01
2023-05-24T10:18:10.413Z,53.71
2023-05-24T10:20:40.984Z,52.74
2023-05-24T10:23:10.289Z,52.49
2023-05-24T10:25:41.409Z,53.39
2023-05-24T10:28:12.537Z,54.58
2023-05-24T10:30:48.203Z,55.54
2023-05-24T10:33:19.334Z,52.41
2023-05-24T10:35:46.186Z,51.18
2023-05-24T10:38:12.712Z,50.35
2023-05-24T10:40:42.952Z,51.14
2023-05-24T10:43:10.308Z,51.96
2023-05-24T10:45:40.393Z,50.78
2023-05-24T10:48:13.262Z,50.16
2023-05-24T10:50:41.895Z,50.52
2023-05-24T10:53:15.583Z,49.16
2023-05-24T10:55:55.784Z,49.68
2023-05-24T10:58:48.805Z,50.63
2023-05-24T11:01:29.558Z,49.14
2023-05-24T11:04:15.173Z,49.51
2023-05-24T11:06:55.877Z,49.47
2023-05-24T11:09:23.138Z,49.50
2023-05-24T11:11:54.079Z,50.51
2023-05-24T11:14:24.330Z,51.14
2023-05-24T11:16:51.917Z,50.48
2023-05-24T11:19:20.683Z,49.25
2023-05-24T11:21:48.797Z,49.29
2023-05-24T11:24:18.907Z,49.58
2023-05-24T11:26:45.950Z,48.46
2023-05-24T11:29:22.741Z,47.96
2023-05-24T11:31:54.117Z,48.36
2023-05-24T11:34:21.478Z,48.16
2023-05-24T11:36:48.935Z,48.40
2023-05-24T11:39:16.340Z,49.03
2023-05-24T11:41:43.305Z,48.81
2023-05-24T11:44:11.033Z,48.53
2023-05-24T11:46:40.459Z,47.47
2023-05-24T11:49:07.220Z,46.60
2023-05-24T11:51:35.681Z,46.37
2023-05-24T11:54:02.136Z,47.03
2023-05-24T11:56:33.928Z,46.97
2023-05-24T11:59:14.158Z,48.22
2023-05-24T12:01:40.693Z,48.73
2023-05-24T12:04:09.433Z,49.59
2023-05-24T12:06:41.224Z,49.73
2023-05-24T12:09:10.292Z,50.10
2023-05-24T12:11:44.537Z,50.08
2023-05-24T12:14:15.526Z,50.42
2023-05-24T12:16:43.508Z,50.73
2023-05-24T12:19:31.641Z,50.98
2023-05-24T12:22:00.963Z,49.85
2023-05-24T12:24:28.377Z,50.55
2023-05-24T12:27:03.281Z,50.22
2023-05-24T12:29:38.492Z,50.03
2023-05-24T12:32:05.823Z,49.93
2023-05-24T12:34:32.698Z,50.14
2023-05-24T12:36:59.747Z,48.32
2023-05-24T12:39:32.150Z,47.93
2023-05-24T12:42:01.442Z,47.73
2023-05-24T12:44:29.254Z,46.63
2023-05-24T12:46:58.142Z,45.18
2023-05-24T12:49:25.607Z,46.98
2023-05-24T12:51:54.241Z,45.80
2023-05-24T12:54:24.251Z,42.94
2023-05-24T12:56:53.461Z,41.91
2023-05-24T12:59:22.099Z,40.20
2023-05-24T13:01:52.388Z,38.00
2023-05-24T13:04:21.310Z,36.78
2023-05-24T13:06:48.614Z,37.07
2023-05-24T13:09:17.893Z,35.22
2023-05-24T13:11:44.312Z,35.39
2023-05-24T13:14:12.004Z,35.39
2023-05-24T13:16:38.479Z,35.03
2023-05-24T13:19:05.092Z,34.46
2023-05-24T13:21:31.620Z,34.80
2023-05-24T13:23:58.084Z,35.48
2023-05-24T13:26:24.597Z,36.19
2023-05-24T13:29:21.843Z,36.25
2023-05-24T13:31:38.806Z,37.18
2023-05-24T13:34:06.203Z,36.80
2023-05-24T13:36:33.580Z,36.80
2023-05-24T13:39:13.320Z,36.92
2023-05-24T13:41:41.184Z,37.41
2023-05-24T13:44:08.541Z,37.56
2023-05-24T13:46:36.254Z,37.72
2023-05-24T13:49:03.337Z,37.70
2023-05-24T13:51:30.630Z,37.91
2023-05-24T13:53:57.452Z,37.31
2023-05-24T13:56:24.783Z,37.30
2023-05-24T13:58:52.096Z,37.31
2023-05-24T14:01:18.706Z,38.24
2023-05-24T14:03:45.184Z,37.94
2023-05-24T14:06:11.887Z,38.09
2023-05-24T14:08:38.954Z,39.10
2023-05-24T14:11:05.620Z,40.04
2023-05-24T14:14:29.776Z,40.37
2023-05-24T14:16:19.810Z,40.05
2023-05-24T14:18:48.786Z,40.21
2023-05-24T14:21:15.383Z,40.74
2023-05-24T14:23:42.018Z,41.27
2023-05-24T14:26:08.596Z,42.63
2023-05-24T14:28:35.112Z,42.72
2023-05-24T14:31:02.124Z,43.21
2023-05-24T14:33:28.769Z,42.86
2023-05-24T14:35:55.285Z,43.82
2023-05-24T14:38:23.750Z,44.24
2023-05-24T14:40:51.134Z,43.65
2023-05-24T14:43:18.510Z,44.22
2023-05-24T14:45:45.217Z,45.22
2023-05-24T14:48:12.803Z,44.59
2023-05-24T14:50:40.695Z,44.47
2023-05-24T14:53:10.879Z,44.01
2023-05-24T14:55:38.356Z,43.92
2023-05-24T14:58:09.020Z,43.91
2023-05-24T15:00:36.482Z,43.97
2023-05-24T15:03:03.200Z,42.87
2023-05-24T15:05:30.151Z,43.15
2023-05-24T15:07:57.278Z,43.21
2023-05-24T15:10:23.749Z,43.40
2023-05-24T15:12:51.830Z,43.14
2023-05-24T15:15:18.933Z,42.36
2023-05-24T15:17:46.419Z,42.89
2023-05-24T15:20:12.964Z,44.01
2023-05-24T15:22:39.938Z,44.09
2023-05-24T15:25:07.306Z,44.84
2023-05-24T15:27:34.128Z,44.48
2023-05-24T15:30:00.819Z,46.89
2023-05-24T15:32:27.281Z,45.24
2023-05-24T15:34:53.761Z,45.73
2023-05-24T15:37:21.725Z,44.82
2023-05-24T15:39:49.127Z,44.68
2023-05-24T15:42:16.079Z,44.47
2023-05-24T15:44:42.540Z,45.07
2023-05-24T15:47:09.233Z,45.62
2023-05-24T15:49:35.687Z,45.39
2023-05-24T15:52:04.733Z,45.46
2023-05-24T15:54:32.085Z,46.82
2023-05-24T15:57:00.446Z,46.19
2023-05-24T15:59:27.096Z,46.07
2023-05-24T16:01:55.015Z,46.07
2023-05-24T16:04:21.577Z,46.54
2023-05-24T16:06:48.118Z,47.17
2023-05-24T16:09:14.791Z,46.46
2023-05-24T16:11:41.431Z,46.93
2023-05-24T16:14:08.372Z,47.18
2023-05-24T16:16:36.554Z,45.62
2023-05-24T16:19:03.042Z,45.09
2023-05-24T16:21:29.478Z,46.05
2023-05-24T16:23:56.035Z,46.11
2023-05-24T16:26:22.483Z,46.86
2023-05-24T16:28:49.898Z,46.46
2023-05-24T16:31:16.504Z,47.76
2023-05-24T16:33:43.063Z,46.68
2023-05-24T16:36:09.518Z,45.60
2023-05-24T16:38:37.336Z,45.81
2023-05-24T16:41:05.968Z,45.44
2023-05-24T16:43:33.001Z,46.65
2023-05-24T16:46:00.649Z,47.62
2023-05-24T16:48:31.420Z,47.65
2023-05-24T16:50:58.338Z,45.65
2023-05-24T16:53:26.621Z,44.56
2023-05-24T16:55:54.648Z,45.69
2023-05-24T16:58:22.261Z,47.16
2023-05-24T17:00:48.981Z,45.97
2023-05-24T17:03:15.637Z,45.77
2023-05-24T17:05:42.418Z,45.90
2023-05-24T17:08:08.878Z,46.11
2023-05-24T17:10:35.510Z,46.30
2023-05-24T17:13:02.203Z,47.24
2023-05-24T17:15:28.631Z,47.50
2023-05-24T17:17:56.020Z,47.54
2023-05-24T17:20:22.732Z,47.59
2023-05-24T17:22:49.430Z,47.20
2023-05-24T17:25:16.542Z,47.21
2023-05-24T17:27:42.991Z,47.63
2023-05-24T17:30:09.987Z,47.93
2023-05-24T17:32:36.741Z,48.33
2023-05-24T17:35:03.701Z,48.73
2023-05-24T17:37:30.486Z,49.16
2023-05-24T17:39:56.959Z,48.96
2023-05-24T17:42:24.707Z,49.93
2023-05-24T17:44:51.180Z,49.42
2023-05-24T17:47:17.723Z,50.27
2023-05-24T17:49:44.570Z,49.26
2023-05-24T17:52:13.931Z,49.43
2023-05-24T17:54:40.668Z,50.08
2023-05-24T17:57:07.701Z,51.34
2023-05-24T17:59:34.165Z,51.07
2023-05-24T18:02:01.010Z,52.64
2023-05-24T18:04:27.714Z,51.89
2023-05-24T18:06:55.268Z,51.53
2023-05-24T18:09:22.017Z,51.85
2023-05-24T18:11:49.496Z,53.39
2023-05-24T18:14:16.031Z,54.65
2023-05-24T18:16:42.941Z,54.17
2023-05-24T18:19:09.733Z,52.83
2023-05-24T18:21:36.731Z,53.40
2023-05-24T18:24:03.268Z,53.32
2023-05-24T18:26:30.019Z,53.84
2023-05-24T18:28:56.529Z,54.68
2023-05-24T18:31:23.034Z,55.34
2023-05-24T18:33:49.737Z,55.37
2023-05-24T18:36:16.449Z,55.94
2023-05-24T18:38:44.779Z,57.79
2023-05-24T18:41:12.128Z,59.11
2023-05-24T18:43:39.525Z,58.39
2023-05-24T18:46:06.338Z,59.38
2023-05-24T18:48:32.786Z,60.39
2023-05-24T18:50:59.309Z,61.88
2023-05-24T18:53:25.917Z,62.74
2023-05-24T18:55:52.433Z,62.34
2023-05-24T18:58:18.840Z,62.16
2023-05-24T19:00:45.384Z,62.77
2023-05-24T19:03:12.088Z,63.53
2023-05-24T19:05:41.480Z,63.94
2023-05-24T19:08:09.913Z,64.39
2023-05-24T19:10:36.808Z,65.25
2023-05-24T19:13:03.372Z,64.14
2023-05-24T19:15:29.878Z,64.88
2023-05-24T19:17:57.720Z,65.26
2023-05-24T19:20:24.410Z,65.91
2023-05-24T19:22:50.904Z,64.70
2023-05-24T19:25:17.450Z,65.37
2023-05-24T19:27:57.926Z,64.33
2023-05-24T19:30:25.436Z,64.50
2023-05-24T19:32:52.192Z,65.83
2023-05-24T19:35:18.663Z,65.09
2023-05-24T19:37:45.197Z,64.35
2023-05-24T19:40:11.763Z,64.76
2023-05-24T19:42:38.206Z,65.65
2023-05-24T19:45:05.201Z,65.69
2023-05-24T19:47:31.787Z,65.66
2023-05-24T19:49:58.385Z,65.61
2023-05-24T19:52:24.949Z,66.60
2023-05-24T19:54:51.418Z,66.56
2023-05-24T19:57:17.861Z,66.20
2023-05-24T19:59:44.363Z,66.90
2023-05-24T20:02:11.305Z,67.05
2023-05-24T20:04:41.642Z,67.25
2023-05-24T20:07:08.808Z,67.65
2023-05-24T20:09:36.000Z,67.57
2023-05-24T20:12:02.674Z,66.98
2023-05-24T20:14:31.356Z,67.59
2023-05-24T20:16:58.505Z,67.28
2023-05-24T20:19:26.123Z,66.96
2023-05-24T20:21:52.679Z,66.97
2023-05-24T20:24:19.110Z,66.89
2023-05-24T20:26:45.587Z,67.23
2023-05-24T20:29:12.039Z,67.09
2023-05-24T20:31:38.601Z,66.60
2023-05-24T20:34:05.218Z,66.45
2023-05-24T20:36:32.657Z,66.41
2023-05-24T20:38:59.106Z,66.70
2023-05-24T20:41:26.401Z,66.97
2023-05-24T20:43:52.830Z,66.94
2023-05-24T20:46:19.350Z,66.36
2023-05-24T20:48:46.230Z,66.29
2023-05-24T20:51:12.680Z,66.50
2023-05-24T20:53:39.297Z,67.09
2023-05-24T20:56:05.933Z,67.12
2023-05-24T20:58:32.428Z,67.64
2023-05-24T21:00:59.263Z,67.54
2023-05-24T21:03:25.874Z,67.92
2023-05-24T21:05:52.324Z,68.29
2023-05-24T21:08:18.770Z,68.64
2023-05-24T21:10:45.281Z,69.47
2023-05-24T21:13:11.820Z,69.80
2023-05-24T21:15:38.302Z,70.20
2023-05-24T21:18:05.196Z,70.38
2023-05-24T21:20:31.733Z,70.95
2023-05-24T21:22:58.515Z,71.09
2023-05-24T21:25:25.046Z,71.63
2023-05-24T21:27:51.830Z,72.28
2023-05-24T21:30:18.274Z,72.90
2023-05-24T21:32:45.338Z,73.35
2023-05-24T21:35:11.788Z,73.91
2023-05-24T21:37:38.474Z,74.38
2023-05-24T21:40:06.166Z,75.01
2023-05-24T21:42:32.594Z,75.53
2023-05-24T21:44:59.002Z,76.28
2023-05-24T21:47:25.478Z,76.73
2023-05-24T21:49:51.909Z,77.00
2023-05-24T21:52:19.384Z,77.53
2023-05-24T21:54:45.974Z,77.86
2023-05-24T21:57:12.501Z,78.08
2023-05-24T21:59:38.946Z,78.25
2023-05-24T22:02:05.693Z,78.21
2023-05-24T22:04:32.393Z,78.01
2023-05-24T22:06:59.172Z,77.57
2023-05-24T22:09:25.694Z,77.60
2023-05-24T22:11:52.557Z,77.68
2023-05-24T22:14:19.293Z,77.75
2023-05-24T22:16:45.851Z,77.90
2023-05-24T22:19:14.942Z,77.89
2023-05-24T22:21:43.535Z,78.39
2023-05-24T22:24:10.380Z,79.46
2023-05-24T22:26:37.119Z,79.62
2023-05-24T22:29:04.230Z,79.35
2023-05-24T22:31:33.160Z,79.71
2023-05-24T22:34:02.246Z,79.95
2023-05-24T22:36:33.236Z,80.54
2023-05-24T22:39:02.666Z,80.21
2023-05-24T22:41:29.389Z,80.91
2023-05-24T22:43:57.100Z,80.76
2023-05-24T22:46:24.244Z,81.19
2023-05-24T22:48:52.579Z,81.47
2023-05-24T22:51:19.971Z,81.51
2023-05-24T22:53:47.408Z,81.36
2023-05-24T22:56:14.029Z,81.54
2023-05-24T22:58:40.532Z,82.10
2023-05-24T23:01:07.526Z,82.28
2023-05-24T23:03:34.025Z,82.84
2023-05-24T23:06:04.031Z,83.31
2023-05-24T23:08:34.297Z,83.23
2023-05-24T23:11:01.120Z,83.50
2023-05-24T23:13:35.791Z,83.85
2023-05-24T23:16:02.544Z,83.97
2023-05-24T23:18:29.111Z,83.91
2023-05-24T23:20:56.074Z,84.15
2023-05-24T23:23:22.992Z,84.66
2023-05-24T23:25:53.259Z,84.93
2023-05-24T23:28:19.849Z,85.33
2023-05-24T23:30:46.463Z,85.71
2023-05-24T23:33:12.973Z,85.62
2023-05-24T23:35:39.877Z,85.79
2023-05-24T23:38:06.785Z,85.93
2023-05-24T23:40:34.301Z,86.00
2023-05-24T23:43:00.787Z,86.03
2023-05-24T23:45:27.350Z,86.12
2023-05-24T23:47:53.928Z,85.93
2023-05-24T23:50:22.363Z,86.17
2023-05-24T23:52:49.390Z,86.38
2023-05-24T23:55:16.244Z,86.92
2023-05-24T23:57:43.086Z,86.91
